createdAt,value
2019-04-26T00:00:43.269Z,13.69
2019-04-26T00:03:12.775Z,13.65
2019-04-26T00:05:41.333Z,13.67
2019-04-26T00:08:10.764Z,13.66
2019-04-26T00:10:59.225Z,13.62
2019-04-26T00:14:04.275Z,13.61
2019-04-26T00:16:47.466Z,13.66
2019-04-26T00:19:15.970Z,13.67
2019-04-26T00:21:44.726Z,13.78
2019-04-26T00:24:13.347Z,13.82
2019-04-26T00:26:41.781Z,13.77
2019-04-26T00:29:11.261Z,13.77
2019-04-26T00:31:39.819Z,13.65
2019-04-26T00:34:08.203Z,13.73
2019-04-26T00:36:36.674Z,13.62
2019-04-26T00:39:05.866Z,13.68
2019-04-26T00:41:34.332Z,13.59
2019-04-26T00:44:03.772Z,13.49
2019-04-26T00:46:33.049Z,13.54
2019-04-26T00:49:02.839Z,13.66
2019-04-26T00:51:31.355Z,13.64
2019-04-26T00:53:59.977Z,13.73
2019-04-26T00:56:28.553Z,13.68
2019-04-26T00:58:57.161Z,13.62
2019-04-26T01:01:27.243Z,13.43
2019-04-26T01:03:55.633Z,13.48
2019-04-26T01:06:26.026Z,13.55
2019-04-26T01:08:54.377Z,13.48
2019-04-26T01:11:23.826Z,13.60
2019-04-26T01:13:52.266Z,13.73
2019-04-26T01:16:20.689Z,13.71
2019-04-26T01:18:50.281Z,13.69
2019-04-26T01:21:20.547Z,13.66
2019-04-26T01:23:50.386Z,13.66
2019-04-26T01:26:21.187Z,13.60
2019-04-26T01:28:53.539Z,13.56
2019-04-26T01:31:21.987Z,13.61
2019-04-26T01:33:50.551Z,13.67
2019-04-26T01:36:19.495Z,13.75
2019-04-26T01:38:50.434Z,13.61
2019-04-26T01:44:36.299Z,13.69
2019-04-26T01:47:04.752Z,13.72
2019-04-26T01:49:33.116Z,13.81
2019-04-26T01:52:06.577Z,13.76
2019-04-26T01:54:38.173Z,13.70
2019-04-26T01:57:06.565Z,13.67
2019-04-26T01:59:35.983Z,13.51
2019-04-26T02:02:41.704Z,13.52
2019-04-26T02:05:35.326Z,13.63
2019-04-26T02:08:03.825Z,13.63
2019-04-26T02:10:32.741Z,13.53
2019-04-26T02:13:01.577Z,13.60
2019-04-26T02:15:31.336Z,13.49
2019-04-26T02:18:00.043Z,13.70
2019-04-26T02:21:39.585Z,13.66
2019-04-26T02:24:21.347Z,13.67
2019-04-26T02:26:49.804Z,13.62
2019-04-26T02:29:19.653Z,13.44
2019-04-26T02:31:51.141Z,13.43
2019-04-26T02:34:19.419Z,13.56
2019-04-26T02:36:57.848Z,13.52
2019-04-26T02:39:22.543Z,13.51
2019-04-26T02:41:52.687Z,13.52
2019-04-26T02:44:22.522Z,13.48
2019-04-26T02:47:02.421Z,13.55
2019-04-26T02:49:37.094Z,13.44
2019-04-26T02:52:08.792Z,13.56
2019-04-26T02:54:45.702Z,13.55
2019-04-26T02:57:42.241Z,13.47
2019-04-26T03:00:12.879Z,13.57
2019-04-26T03:02:41.566Z,13.51
2019-04-26T03:05:10.160Z,13.50
2019-04-26T03:07:43.947Z,13.36
2019-04-26T03:10:13.220Z,13.19
2019-04-26T03:12:43.453Z,13.09
2019-04-26T03:15:25.661Z,13.21
2019-04-26T03:18:17.466Z,13.17
2019-04-26T03:20:47.178Z,13.13
2019-04-26T03:23:19.297Z,13.05
2019-04-26T03:26:01.989Z,13.07
2019-04-26T03:28:55.046Z,13.06
2019-04-26T03:31:36.252Z,13.01
2019-04-26T03:34:14.354Z,12.89
2019-04-26T03:37:21.540Z,13.02
2019-04-26T03:40:01.605Z,12.94
2019-04-26T03:42:47.791Z,12.93
2019-04-26T03:45:20.062Z,12.86
2019-04-26T03:47:53.220Z,12.86
2019-04-26T03:50:25.300Z,12.85
2019-04-26T03:53:21.485Z,12.76
2019-04-26T03:56:27.449Z,12.82
2019-04-26T03:59:29.602Z,12.90
2019-04-26T04:02:17.803Z,12.76
2019-04-26T04:04:55.223Z,12.96
2019-04-26T04:07:36.713Z,12.86
2019-04-26T04:09:57.999Z,12.77
2019-04-26T04:12:31.712Z,12.87
2019-04-26T04:15:09.126Z,12.88
2019-04-26T04:17:46.184Z,12.88
2019-04-26T04:20:38.966Z,12.83
2019-04-26T04:23:12.608Z,12.88
2019-04-26T04:25:44.266Z,12.64
2019-04-26T04:28:25.578Z,12.67
2019-04-26T04:31:05.421Z,12.76
2019-04-26T04:33:37.525Z,12.89
2019-04-26T04:36:08.616Z,12.84
2019-04-26T04:38:47.857Z,12.80
2019-04-26T04:41:33.835Z,12.85
2019-04-26T04:44:16.340Z,12.84
2019-04-26T04:47:22.815Z,12.81
2019-04-26T04:49:56.482Z,12.73
2019-04-26T04:52:35.490Z,12.79
2019-04-26T04:55:42.906Z,12.64
2019-04-26T04:58:13.200Z,12.78
2019-04-26T05:01:25.134Z,12.74
2019-04-26T05:03:57.826Z,12.70
2019-04-26T05:07:05.131Z,12.80
2019-04-26T05:09:36.310Z,12.80
2019-04-26T05:12:23.547Z,12.74
2019-04-26T05:15:01.778Z,12.78
2019-04-26T05:17:37.963Z,12.73
2019-04-26T05:20:13.887Z,12.82
2019-04-26T05:22:49.093Z,12.94
2019-04-26T05:25:51.376Z,12.94
2019-04-26T05:28:27.395Z,13.06
2019-04-26T05:31:17.439Z,12.98
2019-04-26T05:34:05.266Z,12.90
2019-04-26T05:36:38.704Z,12.90
2019-04-26T05:39:21.802Z,12.91
2019-04-26T05:42:06.562Z,12.89
2019-04-26T05:45:15.509Z,12.92
2019-04-26T05:48:09.291Z,12.89
2019-04-26T05:50:55.889Z,12.90
2019-04-26T05:54:08.457Z,12.92
2019-04-26T05:56:45.110Z,12.86
2019-04-26T05:59:19.151Z,12.98
2019-04-26T06:02:04.218Z,13.10
2019-04-26T06:05:21.958Z,13.08
2019-04-26T06:08:05.320Z,12.92
2019-04-26T06:10:47.230Z,12.93
2019-04-26T06:13:38.230Z,13.22
2019-04-26T06:16:20.887Z,13.00
2019-04-26T06:19:04.855Z,13.17
2019-04-26T06:21:58.116Z,13.15
2019-04-26T06:24:48.266Z,13.15
2019-04-26T06:27:41.162Z,13.14
2019-04-26T06:30:28.448Z,13.11
2019-04-26T06:33:03.243Z,13.14
2019-04-26T06:35:33.075Z,13.13
2019-04-26T06:38:14.458Z,13.29
2019-04-26T06:40:51.554Z,13.43
2019-04-26T06:43:35.264Z,13.14
2019-04-26T06:46:38.628Z,13.24
2019-04-26T06:49:34.011Z,13.38
2019-04-26T06:52:05.088Z,13.40
2019-04-26T06:54:37.106Z,13.29
2019-04-26T06:57:17.777Z,13.47
2019-04-26T06:59:53.633Z,13.41
2019-04-26T07:02:27.615Z,13.46
2019-04-26T07:05:09.827Z,13.97
2019-04-26T07:07:59.383Z,13.45
2019-04-26T07:10:34.541Z,13.39
2019-04-26T07:13:25.478Z,13.36
2019-04-26T07:16:19.775Z,13.58
2019-04-26T07:19:01.324Z,13.55
2019-04-26T07:21:48.928Z,13.50
2019-04-26T07:24:55.127Z,13.47
2019-04-26T07:27:42.074Z,13.94
2019-04-26T07:30:17.325Z,13.68
2019-04-26T07:32:57.706Z,13.96
2019-04-26T07:35:30.745Z,13.67
2019-04-26T07:38:26.762Z,13.83
2019-04-26T07:41:37.474Z,13.81
2019-04-26T07:44:19.397Z,13.72
2019-04-26T07:46:58.519Z,13.54
2019-04-26T07:49:44.509Z,13.52
2019-04-26T07:52:17.748Z,13.70
2019-04-26T07:54:52.893Z,13.71
2019-04-26T07:57:52.380Z,13.76
2019-04-26T08:00:24.466Z,13.67
2019-04-26T08:03:19.464Z,13.52
2019-04-26T08:05:59.869Z,13.46
2019-04-26T08:08:29.855Z,13.52
2019-04-26T08:11:06.863Z,13.50
2019-04-26T08:13:36.607Z,13.69
2019-04-26T08:16:34.848Z,13.46
2019-04-26T08:19:06.999Z,13.61
2019-04-26T08:21:42.565Z,13.79
2019-04-26T08:24:21.717Z,13.88
2019-04-26T08:26:53.253Z,13.97
2019-04-26T08:29:22.503Z,14.23
2019-04-26T08:31:53.399Z,14.56
2019-04-26T08:34:28.905Z,14.37
2019-04-26T08:37:03.219Z,14.79
2019-04-26T08:39:44.963Z,14.89
2019-04-26T08:42:05.118Z,15.24
2019-04-26T08:44:54.146Z,15.02
2019-04-26T08:47:35.566Z,15.04
2019-04-26T08:50:19.475Z,15.38
2019-04-26T08:52:49.414Z,15.25
2019-04-26T08:55:19.203Z,15.06
2019-04-26T08:57:48.593Z,15.08
2019-04-26T09:00:39.266Z,15.41
2019-04-26T09:03:18.738Z,15.53
2019-04-26T09:06:19.607Z,15.71
2019-04-26T09:08:49.323Z,15.78
2019-04-26T09:11:26.005Z,15.36
2019-04-26T09:13:50.856Z,15.54
2019-04-26T09:16:21.027Z,15.84
2019-04-26T09:18:54.130Z,15.67
2019-04-26T09:21:28.988Z,15.68
2019-04-26T09:24:08.405Z,15.71
2019-04-26T09:26:49.167Z,15.99
2019-04-26T09:29:40.001Z,15.51
2019-04-26T09:32:33.141Z,15.55
2019-04-26T09:35:01.428Z,15.96
2019-04-26T09:37:29.791Z,15.43
2019-04-26T09:40:09.694Z,15.53
2019-04-26T09:42:49.926Z,15.82
2019-04-26T09:45:36.258Z,16.01
2019-04-26T09:48:20.966Z,15.87
2019-04-26T09:50:50.732Z,15.68
2019-04-26T09:53:20.091Z,15.55
2019-04-26T09:55:48.407Z,16.09
2019-04-26T09:58:16.713Z,16.05
2019-04-26T10:00:48.496Z,16.25
2019-04-26T10:03:15.259Z,15.94
2019-04-26T10:05:43.586Z,15.77
2019-04-26T10:08:12.814Z,15.93
2019-04-26T10:10:41.811Z,15.87
2019-04-26T10:13:41.181Z,16.03
2019-04-26T10:16:15.081Z,15.89
2019-04-26T10:18:46.214Z,16.24
2019-04-26T10:21:14.476Z,16.37
2019-04-26T10:23:42.763Z,16.49
2019-04-26T10:26:11.238Z,16.11
2019-04-26T10:28:39.520Z,16.97
2019-04-26T10:31:07.772Z,17.16
2019-04-26T10:33:36.508Z,17.09
2019-04-26T10:36:05.222Z,16.99
2019-04-26T10:38:33.495Z,17.42
2019-04-26T10:41:01.792Z,17.21
2019-04-26T10:43:30.176Z,17.70
2019-04-26T10:45:58.434Z,17.35
2019-04-26T10:48:26.695Z,17.33
2019-04-26T10:50:54.978Z,17.40
2019-04-26T10:53:41.078Z,18.19
2019-04-26T10:56:31.395Z,17.52
2019-04-26T10:59:11.017Z,17.59
2019-04-26T11:01:39.632Z,17.86
2019-04-26T11:04:08.144Z,17.53
2019-04-26T11:06:36.411Z,17.42
2019-04-26T11:09:06.654Z,17.86
2019-04-26T11:11:35.390Z,17.84
2019-04-26T11:14:03.701Z,17.35
2019-04-26T11:16:31.966Z,17.36
2019-04-26T11:19:01.130Z,17.53
2019-04-26T11:21:30.231Z,17.68
2019-04-26T11:23:58.468Z,17.60
2019-04-26T11:26:26.766Z,18.03
2019-04-26T11:28:55.818Z,18.24
2019-04-26T11:31:27.651Z,18.59
2019-04-26T11:34:04.751Z,18.20
2019-04-26T11:36:25.266Z,18.58
2019-04-26T11:38:53.588Z,19.04
2019-04-26T11:41:21.909Z,19.19
2019-04-26T11:43:52.885Z,18.49
2019-04-26T11:46:21.397Z,19.31
2019-04-26T11:48:58.781Z,19.30
2019-04-26T11:51:23.486Z,19.46
2019-04-26T11:53:50.279Z,18.90
2019-04-26T11:56:18.595Z,19.26
2019-04-26T11:58:46.950Z,18.81
2019-04-26T12:01:16.786Z,18.39
2019-04-26T12:04:03.993Z,18.64
2019-04-26T12:06:44.282Z,18.99
2019-04-26T12:09:17.120Z,19.08
2019-04-26T12:11:49.622Z,19.21
2019-04-26T12:14:20.398Z,19.01
2019-04-26T12:16:48.216Z,18.78
2019-04-26T12:19:18.190Z,18.83
2019-04-26T12:21:45.553Z,18.75
2019-04-26T12:24:13.861Z,18.62
2019-04-26T12:26:43.853Z,18.69
2019-04-26T12:29:14.773Z,19.15
2019-04-26T12:31:42.407Z,18.98
2019-04-26T12:34:14.074Z,19.05
2019-04-26T12:36:40.688Z,18.70
2019-04-26T12:39:09.771Z,19.25
2019-04-26T12:41:40.733Z,20.18
2019-04-26T12:44:08.369Z,20.17
2019-04-26T12:46:50.599Z,20.06
2019-04-26T12:49:20.405Z,19.72
2019-04-26T12:51:49.196Z,19.62
2019-04-26T12:54:18.739Z,19.76
2019-04-26T12:56:47.071Z,19.35
2019-04-26T12:59:15.960Z,19.97
2019-04-26T13:01:46.447Z,20.00
2019-04-26T13:04:14.570Z,19.47
2019-04-26T13:06:50.899Z,19.54
2019-04-26T13:09:21.953Z,20.34
2019-04-26T13:12:08.768Z,20.48
2019-04-26T13:14:56.030Z,20.10
2019-04-26T13:17:31.344Z,20.59
2019-04-26T13:19:59.518Z,20.08
2019-04-26T13:22:27.802Z,20.28
2019-04-26T13:24:56.177Z,20.24
2019-04-26T13:27:24.581Z,20.14
2019-04-26T13:30:01.516Z,20.31
2019-04-26T13:32:22.967Z,20.62
2019-04-26T13:34:51.242Z,20.18
2019-04-26T13:37:19.549Z,20.42
2019-04-26T13:39:51.386Z,20.84
2019-04-26T13:42:18.696Z,20.29
2019-04-26T13:45:21.122Z,20.19
2019-04-26T13:48:08.364Z,20.38
2019-04-26T13:50:40.277Z,20.24
2019-04-26T13:53:08.556Z,19.89
2019-04-26T13:55:36.810Z,20.13
2019-04-26T13:58:05.194Z,20.21
2019-04-26T14:00:33.541Z,20.37
2019-04-26T14:03:01.885Z,20.68
2019-04-26T14:05:30.155Z,20.80
2019-04-26T14:07:58.452Z,20.63
2019-04-26T14:10:26.782Z,20.99
2019-04-26T14:12:55.091Z,21.21
2019-04-26T14:15:23.537Z,21.14
2019-04-26T14:17:51.939Z,20.60
2019-04-26T14:20:23.319Z,20.38
2019-04-26T14:23:04.172Z,20.05
2019-04-26T14:25:43.253Z,19.81
2019-04-26T14:28:11.556Z,20.03
2019-04-26T14:30:41.860Z,19.67
2019-04-26T14:33:09.871Z,19.05
2019-04-26T14:35:38.142Z,19.32
2019-04-26T14:38:06.420Z,19.36
2019-04-26T14:40:34.739Z,19.76
2019-04-26T14:43:06.753Z,19.55
2019-04-26T14:45:36.304Z,19.66
2019-04-26T14:48:04.066Z,20.06
2019-04-26T14:50:33.602Z,20.10
2019-04-26T14:53:02.531Z,20.49
2019-04-26T14:55:31.874Z,20.08
2019-04-26T14:58:00.144Z,19.59
2019-04-26T15:00:31.669Z,19.54
2019-04-26T15:03:05.485Z,19.19
2019-04-26T15:05:43.062Z,19.27
2019-04-26T15:08:13.188Z,18.63
2019-04-26T15:10:46.745Z,19.20
2019-04-26T15:13:19.902Z,19.18
2019-04-26T15:15:42.665Z,19.29
2019-04-26T15:18:12.273Z,19.19
2019-04-26T15:20:40.675Z,19.04
2019-04-26T15:23:08.942Z,19.29
2019-04-26T15:25:37.262Z,19.41
2019-04-26T15:28:06.919Z,20.07
2019-04-26T15:30:43.423Z,20.19
2019-04-26T15:33:08.962Z,19.92
2019-04-26T15:35:35.915Z,19.95
2019-04-26T15:38:04.710Z,20.27
2019-04-26T15:40:51.063Z,20.18
2019-04-26T15:43:29.019Z,20.33
2019-04-26T15:46:16.264Z,19.74
2019-04-26T15:49:05.149Z,19.43
2019-04-26T15:51:34.326Z,19.38
2019-04-26T15:54:02.601Z,19.59
2019-04-26T15:56:32.455Z,19.65
2019-04-26T15:59:02.530Z,19.29
2019-04-26T16:01:32.550Z,19.08
2019-04-26T16:04:05.613Z,18.48
2019-04-26T16:06:32.230Z,18.55
2019-04-26T16:09:02.221Z,18.60
2019-04-26T16:11:30.900Z,18.67
2019-04-26T16:13:59.362Z,18.68
2019-04-26T16:16:29.216Z,18.98
2019-04-26T16:18:57.802Z,18.92
2019-04-26T16:21:26.138Z,19.17
2019-04-26T16:23:55.236Z,19.10
2019-04-26T16:26:23.969Z,19.08
2019-04-26T16:29:18.477Z,19.07
2019-04-26T16:32:21.996Z,19.08
2019-04-26T16:34:52.825Z,18.90
2019-04-26T16:37:23.576Z,18.95
2019-04-26T16:39:51.370Z,18.84
2019-04-26T16:42:19.747Z,18.54
2019-04-26T16:44:48.055Z,18.64
2019-04-26T16:47:16.506Z,18.73
2019-04-26T16:49:46.613Z,18.58
2019-04-26T16:52:14.950Z,18.49
2019-04-26T16:54:43.384Z,18.65
2019-04-26T16:57:12.512Z,18.52
2019-04-26T16:59:47.453Z,18.26
2019-04-26T17:02:11.121Z,18.19
2019-04-26T17:04:41.153Z,18.27
2019-04-26T17:07:09.426Z,17.96
2019-04-26T17:09:55.831Z,18.25
2019-04-26T17:12:10.486Z,18.38
2019-04-26T17:14:40.562Z,18.32
2019-04-26T17:17:10.748Z,18.53
2019-04-26T17:19:38.009Z,18.54
2019-04-26T17:22:55.745Z,18.70
2019-04-26T17:25:26.910Z,18.99
2019-04-26T17:27:55.469Z,19.36
2019-04-26T17:30:25.033Z,19.53
2019-04-26T17:32:55.181Z,19.32
2019-04-26T17:35:25.243Z,18.59
2019-04-26T17:37:53.407Z,18.43
2019-04-26T17:40:25.106Z,18.14
2019-04-26T17:42:51.766Z,17.98
2019-04-26T17:45:21.269Z,17.84
2019-04-26T17:47:50.642Z,17.81
2019-04-26T17:50:20.550Z,17.46
2019-04-26T17:52:48.918Z,17.24
2019-04-26T17:55:17.360Z,17.25
2019-04-26T17:57:48.416Z,17.17
2019-04-26T18:00:22.286Z,17.00
2019-04-26T18:02:48.341Z,16.81
2019-04-26T18:05:19.073Z,16.64
2019-04-26T18:07:56.400Z,16.68
2019-04-26T18:10:17.088Z,16.69
2019-04-26T18:12:46.581Z,16.51
2019-04-26T18:15:18.878Z,16.40
2019-04-26T18:18:09.639Z,16.25
2019-04-26T18:20:53.764Z,16.11
2019-04-26T18:23:23.362Z,15.92
2019-04-26T18:25:52.687Z,15.80
2019-04-26T18:28:22.685Z,15.68
2019-04-26T18:30:53.003Z,15.60
2019-04-26T18:33:24.772Z,15.63
2019-04-26T18:35:55.952Z,15.52
2019-04-26T18:38:22.906Z,15.49
2019-04-26T18:41:01.394Z,15.44
2019-04-26T18:43:24.067Z,15.34
2019-04-26T18:45:53.410Z,15.35
2019-04-26T18:48:23.614Z,15.26
2019-04-26T18:50:52.116Z,15.25
2019-04-26T18:53:39.806Z,15.28
2019-04-26T18:56:08.788Z,15.25
2019-04-26T18:58:37.968Z,15.12
2019-04-26T19:01:07.094Z,15.15
2019-04-26T19:03:35.427Z,15.17
2019-04-26T19:06:05.566Z,15.07
2019-04-26T19:08:45.498Z,14.93
2019-04-26T19:11:07.754Z,15.00
2019-04-26T19:13:45.734Z,14.86
2019-04-26T19:16:25.893Z,14.67
2019-04-26T19:18:59.006Z,14.67
2019-04-26T19:21:42.742Z,14.69
2019-04-26T19:24:17.659Z,14.58
2019-04-26T19:26:44.167Z,14.54
2019-04-26T19:29:18.072Z,14.55
2019-04-26T19:31:42.877Z,14.35
2019-04-26T19:34:11.679Z,14.37
2019-04-26T19:36:41.644Z,14.21
2019-04-26T19:39:12.049Z,14.04
2019-04-26T19:41:42.019Z,13.95
2019-04-26T19:44:10.555Z,13.97
2019-04-26T19:47:02.110Z,14.00
2019-04-26T19:49:45.629Z,14.09
2019-04-26T19:52:33.620Z,13.97
2019-04-26T19:55:26.612Z,13.89
2019-04-26T19:58:09.598Z,14.07
2019-04-26T20:00:38.615Z,13.99
2019-04-26T20:03:08.624Z,13.89
2019-04-26T20:05:40.565Z,13.91
2019-04-26T20:08:07.099Z,13.68
2019-04-26T20:10:40.446Z,13.78
2019-04-26T20:13:07.581Z,13.73
2019-04-26T20:15:35.886Z,13.74
2019-04-26T20:18:04.397Z,13.59
2019-04-26T20:20:36.103Z,13.46
2019-04-26T20:23:06.015Z,13.51
2019-04-26T20:25:33.008Z,13.38
2019-04-26T20:28:03.073Z,13.28
2019-04-26T20:30:57.891Z,13.38
2019-04-26T20:33:30.637Z,13.26
2019-04-26T20:35:57.379Z,13.20
2019-04-26T20:38:26.724Z,13.11
2019-04-26T20:40:55.308Z,13.09
2019-04-26T20:43:26.593Z,12.99
2019-04-26T20:46:10.895Z,13.00
2019-04-26T20:48:25.612Z,13.03
2019-04-26T20:50:55.446Z,12.96
2019-04-26T20:53:24.886Z,12.93
2019-04-26T20:55:53.282Z,12.87
2019-04-26T20:58:21.609Z,12.80
2019-04-26T21:00:55.147Z,12.84
2019-04-26T21:03:29.016Z,12.81
2019-04-26T21:06:04.562Z,12.77
2019-04-26T21:08:44.135Z,12.80
2019-04-26T21:11:21.804Z,12.68
2019-04-26T21:13:52.066Z,12.58
2019-04-26T21:16:49.448Z,12.40
2019-04-26T21:19:25.502Z,12.49
2019-04-26T21:22:41.926Z,12.41
2019-04-26T21:25:27.592Z,12.34
2019-04-26T21:28:11.590Z,12.24
2019-04-26T21:30:48.136Z,12.40
2019-04-26T21:33:42.932Z,12.29
2019-04-26T21:36:29.133Z,12.17
2019-04-26T21:39:05.764Z,12.30
2019-04-26T21:41:35.415Z,12.14
2019-04-26T21:44:16.536Z,12.17
2019-04-26T21:49:22.207Z,12.39
2019-04-26T21:51:53.910Z,12.63
2019-04-26T21:54:24.951Z,12.71
2019-04-26T21:56:53.752Z,12.84
2019-04-26T21:59:24.282Z,12.98
2019-04-26T22:01:58.820Z,13.11
2019-04-26T22:04:24.489Z,13.17
2019-04-26T22:06:53.465Z,13.41
2019-04-26T22:09:45.115Z,13.35
2019-04-26T22:12:15.150Z,13.30
2019-04-26T22:14:46.403Z,13.43
2019-04-26T22:17:24.209Z,13.42
2019-04-26T22:20:16.221Z,13.42
2019-04-26T22:23:03.979Z,13.41
2019-04-26T22:25:34.732Z,13.47
2019-04-26T22:28:03.390Z,13.53
2019-04-26T22:30:33.152Z,13.72
2019-04-26T22:33:03.034Z,13.81
2019-04-26T22:35:31.635Z,13.78
2019-04-26T22:37:59.873Z,13.81
2019-04-26T22:40:28.141Z,13.87
2019-04-26T22:43:05.357Z,13.74
2019-04-26T22:45:49.970Z,13.81
2019-04-26T22:48:33.983Z,13.80
2019-04-26T22:51:04.483Z,13.65
2019-04-26T22:53:32.840Z,13.81
2019-04-26T22:56:02.509Z,13.68
2019-04-26T22:58:31.220Z,13.77
2019-04-26T23:01:03.454Z,13.80
2019-04-26T23:03:29.749Z,13.81
2019-04-26T23:05:58.087Z,13.65
2019-04-26T23:08:26.337Z,13.68
2019-04-26T23:10:56.486Z,13.61
2019-04-26T23:13:46.914Z,13.60
2019-04-26T23:16:44.671Z,13.45
2019-04-26T23:19:27.458Z,13.58
2019-04-26T23:21:56.283Z,13.44
2019-04-26T23:24:24.508Z,13.40
2019-04-26T23:26:54.090Z,13.27
2019-04-26T23:29:22.817Z,13.15
2019-04-26T23:31:51.117Z,12.98
2019-04-26T23:34:19.328Z,12.88
2019-04-26T23:36:49.103Z,12.71
2019-04-26T23:39:17.768Z,12.65
2019-04-26T23:41:46.022Z,12.58
2019-04-26T23:44:14.263Z,12.51
2019-04-26T23:46:43.246Z,12.40
2019-04-26T23:49:11.641Z,12.43
2019-04-26T23:51:44.453Z,12.29
2019-04-26T23:54:09.838Z,12.31
2019-04-26T23:56:38.102Z,12.26
2019-04-26T23:59:06.333Z,12.33
